sensor_id;sensor_type;location;lat;lon;timestamp;pressure;altitude;pressure_sealevel;temperature;humidity
29239;BME280;16267;48.194;11.546;2023-03-21T00:01:52;96193.16;;;8.57;78.01
29239;BME280;16267;48.194;11.546;2023-03-21T00:04:21;96194.31;;;8.60;77.13
29239;BME280;16267;48.194;11.546;2023-03-21T00:06:46;96187.78;;;8.61;77.18
29239;BME280;16267;48.194;11.546;2023-03-21T00:09:12;96185.13;;;8.61;77.27
29239;BME280;16267;48.194;11.546;2023-03-21T00:11:38;96184.00;;;8.62;76.47
29239;BME280;16267;48.194;11.546;2023-03-21T00:14:04;96174.81;;;8.63;76.25
29239;BME280;16267;48.194;11.546;2023-03-21T00:16:33;96180.53;;;8.65;75.82
29239;BME280;16267;48.194;11.546;2023-03-21T00:19:01;96175.94;;;8.65;76.36
29239;BME280;16267;48.194;11.546;2023-03-21T00:21:31;96178.22;;;8.67;76.77
29239;BME280;16267;48.194;11.546;2023-03-21T00:23:59;96179.03;;;8.67;76.29
29239;BME280;16267;48.194;11.546;2023-03-21T00:26:25;96179.78;;;8.68;76.48
29239;BME280;16267;48.194;11.546;2023-03-21T00:28:52;96174.44;;;8.68;76.93
29239;BME280;16267;48.194;11.546;2023-03-21T00:31:18;96170.59;;;8.69;76.71
29239;BME280;16267;48.194;11.546;2023-03-21T00:33:44;96164.47;;;8.68;76.78
29239;BME280;16267;48.194;11.546;2023-03-21T00:36:11;96162.97;;;8.67;76.34
29239;BME280;16267;48.194;11.546;2023-03-21T00:38:37;96174.03;;;8.69;75.78
29239;BME280;16267;48.194;11.546;2023-03-21T00:41:09;96165.25;;;8.69;75.59
29239;BME280;16267;48.194;11.546;2023-03-21T00:43:36;96163.31;;;8.69;75.79
29239;BME280;16267;48.194;11.546;2023-03-21T00:46:03;96161.41;;;8.70;76.37
29239;BME280;16267;48.194;11.546;2023-03-21T00:48:29;96158.38;;;8.71;76.25
29239;BME280;16267;48.194;11.546;2023-03-21T00:50:56;96154.94;;;8.71;76.25
29239;BME280;16267;48.194;11.546;2023-03-21T00:53:24;96151.50;;;8.70;76.06
29239;BME280;16267;48.194;11.546;2023-03-21T00:55:50;96159.13;;;8.72;76.42
29239;BME280;16267;48.194;11.546;2023-03-21T00:58:16;96150.34;;;8.71;76.83
29239;BME280;16267;48.194;11.546;2023-03-21T01:00:42;96148.03;;;8.70;77.63
29239;BME280;16267;48.194;11.546;2023-03-21T01:03:14;96149.56;;;8.71;78.18
29239;BME280;16267;48.194;11.546;2023-03-21T01:05:44;96139.63;;;8.71;77.90
29239;BME280;16267;48.194;11.546;2023-03-21T01:08:34;96136.94;;;8.71;77.81
29239;BME280;16267;48.194;11.546;2023-03-21T01:11:12;96136.19;;;8.71;76.92
29239;BME280;16267;48.194;11.546;2023-03-21T01:13:38;96131.59;;;8.71;77.47
29239;BME280;16267;48.194;11.546;2023-03-21T01:16:06;96132.38;;;8.72;76.71
29239;BME280;16267;48.194;11.546;2023-03-21T01:18:35;96133.13;;;8.73;76.92
29239;BME280;16267;48.194;11.546;2023-03-21T01:21:05;96135.03;;;8.72;76.86
29239;BME280;16267;48.194;11.546;2023-03-21T01:23:31;96127.78;;;8.73;77.23
29239;BME280;16267;48.194;11.546;2023-03-21T01:25:57;96133.91;;;8.73;76.94
29239;BME280;16267;48.194;11.546;2023-03-21T01:28:26;96133.13;;;8.73;76.92
29239;BME280;16267;48.194;11.546;2023-03-21T01:30:53;96132.00;;;8.74;77.05
29239;BME280;16267;48.194;11.546;2023-03-21T01:33:20;96125.88;;;8.73;78.02
29239;BME280;16267;48.194;11.546;2023-03-21T01:35:47;96125.09;;;8.73;77.25
29239;BME280;16267;48.194;11.546;2023-03-21T01:38:13;96121.28;;;8.74;77.24
29239;BME280;16267;48.194;11.546;2023-03-21T01:40:40;96127.41;;;8.74;77.70
29239;BME280;16267;48.194;11.546;2023-03-21T01:49:30;96125.09;;;8.76;76.35
29239;BME280;16267;48.194;11.546;2023-03-21T01:52:09;96110.94;;;8.76;76.82
29239;BME280;16267;48.194;11.546;2023-03-21T01:54:39;96110.94;;;8.76;76.65
29239;BME280;16267;48.194;11.546;2023-03-21T01:57:15;96106.38;;;8.76;76.89
29239;BME280;16267;48.194;11.546;2023-03-21T01:59:47;96108.66;;;8.78;76.90
29239;BME280;16267;48.194;11.546;2023-03-21T02:02:23;96107.91;;;8.77;77.29
29239;BME280;16267;48.194;11.546;2023-03-21T02:04:52;96108.66;;;8.78;77.26
29239;BME280;16267;48.194;11.546;2023-03-21T02:07:31;96105.97;;;8.78;77.61
29239;BME280;16267;48.194;11.546;2023-03-21T02:10:05;96097.94;;;8.78;77.25
29239;BME280;16267;48.194;11.546;2023-03-21T02:12:34;96100.63;;;8.78;77.54
29239;BME280;16267;48.194;11.546;2023-03-21T02:15:00;96102.16;;;8.79;77.06
29239;BME280;16267;48.194;11.546;2023-03-21T02:21:37;96096.03;;;8.78;76.70
29239;BME280;16267;48.194;11.546;2023-03-21T02:26:56;96096.03;;;8.78;76.24
29239;BME280;16267;48.194;11.546;2023-03-21T02:32:58;96104.06;;;8.78;76.43
29239;BME280;16267;48.194;11.546;2023-03-21T02:47:33;96108.28;;;8.79;76.39
29239;BME280;16267;48.194;11.546;2023-03-21T02:50:46;96108.28;;;8.79;76.29
29239;BME280;16267;48.194;11.546;2023-03-21T02:53:18;96109.78;;;8.80;76.63
29239;BME280;16267;48.194;11.546;2023-03-21T02:55:46;96099.09;;;8.80;76.67
29239;BME280;16267;48.194;11.546;2023-03-21T02:58:16;96099.84;;;8.81;77.70
29239;BME280;16267;48.194;11.546;2023-03-21T03:00:43;96097.19;;;8.81;77.65
29239;BME280;16267;48.194;11.546;2023-03-21T03:03:11;96099.09;;;8.80;77.56
29239;BME280;16267;48.194;11.546;2023-03-21T03:05:47;96099.84;;;8.81;78.03
29239;BME280;16267;48.194;11.546;2023-03-21T03:11:23;96096.41;;;8.80;79.48
29239;BME280;16267;48.194;11.546;2023-03-21T03:17:10;96095.28;;;8.81;79.60
29239;BME280;16267;48.194;11.546;2023-03-21T03:23:27;96088.78;;;8.79;80.07
29239;BME280;16267;48.194;11.546;2023-03-21T03:26:24;96092.59;;;8.78;79.59
29239;BME280;16267;48.194;11.546;2023-03-21T03:28:55;96081.88;;;8.78;79.20
29239;BME280;16267;48.194;11.546;2023-03-21T03:31:30;96090.69;;;8.78;78.84
29239;BME280;16267;48.194;11.546;2023-03-21T03:34:04;96089.16;;;8.77;79.03
29239;BME280;16267;48.194;11.546;2023-03-21T03:36:39;96076.53;;;8.78;79.61
29239;BME280;16267;48.194;11.546;2023-03-21T03:39:11;96075.03;;;8.77;79.39
29239;BME280;16267;48.194;11.546;2023-03-21T03:42:01;96079.63;;;8.76;78.36
29239;BME280;16267;48.194;11.546;2023-03-21T03:44:28;96081.88;;;8.78;78.69
29239;BME280;16267;48.194;11.546;2023-03-21T03:47:11;96085.72;;;8.77;78.38
29239;BME280;16267;48.194;11.546;2023-03-21T03:49:47;96089.53;;;8.76;78.24
29239;BME280;16267;48.194;11.546;2023-03-21T03:52:28;96090.31;;;8.76;77.89
29239;BME280;16267;48.194;11.546;2023-03-21T03:54:56;96091.06;;;8.77;78.02
29239;BME280;16267;48.194;11.546;2023-03-21T03:57:25;96085.72;;;8.77;77.83
29239;BME280;16267;48.194;11.546;2023-03-21T03:59:51;96091.84;;;8.77;77.81
29239;BME280;16267;48.194;11.546;2023-03-21T04:02:18;96088.41;;;8.77;78.69
29239;BME280;16267;48.194;11.546;2023-03-21T04:04:45;96084.19;;;8.76;79.54
29239;BME280;16267;48.194;11.546;2023-03-21T04:07:12;96080.38;;;8.77;79.59
29239;BME280;16267;48.194;11.546;2023-03-21T04:09:38;96075.03;;;8.77;79.56
29239;BME280;16267;48.194;11.546;2023-03-21T04:12:03;96076.53;;;8.78;79.71
29239;BME280;16267;48.194;11.546;2023-03-21T04:14:29;96074.25;;;8.76;80.10
29239;BME280;16267;48.194;11.546;2023-03-21T04:16:55;96072.72;;;8.75;79.25
29239;BME280;16267;48.194;11.546;2023-03-21T04:19:21;96084.97;;;8.76;79.10
29239;BME280;16267;48.194;11.546;2023-03-21T04:21:47;96076.16;;;8.76;79.09
29239;BME280;16267;48.194;11.546;2023-03-21T04:24:13;96085.34;;;8.75;78.84
29239;BME280;16267;48.194;11.546;2023-03-21T04:26:40;96068.13;;;8.76;79.08
29239;BME280;16267;48.194;11.546;2023-03-21T04:29:06;96075.41;;;8.75;79.35
29239;BME280;16267;48.194;11.546;2023-03-21T04:31:33;96078.06;;;8.75;79.15
29239;BME280;16267;48.194;11.546;2023-03-21T04:34:04;96071.97;;;8.75;79.88
29239;BME280;16267;48.194;11.546;2023-03-21T04:36:37;96070.44;;;8.74;80.34
29239;BME280;16267;48.194;11.546;2023-03-21T04:39:07;96071.19;;;8.74;80.08
29239;BME280;16267;48.194;11.546;2023-03-21T04:41:44;96070.44;;;8.74;79.28
29239;BME280;16267;48.194;11.546;2023-03-21T04:44:13;96062.41;;;8.74;79.32
29239;BME280;16267;48.194;11.546;2023-03-21T04:46:40;96065.84;;;8.74;79.04
29239;BME280;16267;48.194;11.546;2023-03-21T04:49:07;96067.75;;;8.74;78.89
29239;BME280;16267;48.194;11.546;2023-03-21T04:51:34;96063.53;;;8.73;78.80
29239;BME280;16267;48.194;11.546;2023-03-21T04:54:00;96071.19;;;8.74;79.46
29239;BME280;16267;48.194;11.546;2023-03-21T04:56:28;96067.00;;;8.73;78.79
29239;BME280;16267;48.194;11.546;2023-03-21T04:59:02;96067.38;;;8.75;79.01
29239;BME280;16267;48.194;11.546;2023-03-21T05:01:28;96067.75;;;8.77;79.48
29239;BME280;16267;48.194;11.546;2023-03-21T05:04:01;96063.56;;;8.76;79.42
29239;BME280;16267;48.194;11.546;2023-03-21T05:06:36;96074.25;;;8.76;79.55
29239;BME280;16267;48.194;11.546;2023-03-21T05:09:03;96072.34;;;8.77;80.56
29239;BME280;16267;48.194;11.546;2023-03-21T05:11:34;96063.56;;;8.76;81.12
29239;BME280;16267;48.194;11.546;2023-03-21T05:14:07;96056.66;;;8.75;81.34
29239;BME280;16267;48.194;11.546;2023-03-21T05:16:34;96062.78;;;8.76;81.07
29239;BME280;16267;48.194;11.546;2023-03-21T05:19:01;96068.13;;;8.76;80.18
29239;BME280;16267;48.194;11.546;2023-03-21T05:21:33;96070.81;;;8.76;79.91
29239;BME280;16267;48.194;11.546;2023-03-21T05:24:07;96070.03;;;8.75;79.84
29239;BME280;16267;48.194;11.546;2023-03-21T05:26:38;96072.34;;;8.77;79.25
29239;BME280;16267;48.194;11.546;2023-03-21T05:29:04;96068.13;;;8.76;79.34
29239;BME280;16267;48.194;11.546;2023-03-21T05:31:30;96069.66;;;8.77;79.98
29239;BME280;16267;48.194;11.546;2023-03-21T05:33:56;96068.91;;;8.76;80.72
29239;BME280;16267;48.194;11.546;2023-03-21T05:36:22;96058.97;;;8.77;80.48
29239;BME280;16267;48.194;11.546;2023-03-21T05:38:48;96064.31;;;8.77;79.96
29239;BME280;16267;48.194;11.546;2023-03-21T05:41:15;96060.47;;;8.78;80.20
29239;BME280;16267;48.194;11.546;2023-03-21T05:43:41;96067.38;;;8.79;79.99
29239;BME280;16267;48.194;11.546;2023-03-21T05:46:08;96064.69;;;8.79;80.34
29239;BME280;16267;48.194;11.546;2023-03-21T05:48:34;96081.53;;;8.79;80.47
29239;BME280;16267;48.194;11.546;2023-03-21T05:51:01;96077.69;;;8.80;80.42
29239;BME280;16267;48.194;11.546;2023-03-21T05:53:27;96075.75;;;8.81;80.75
29239;BME280;16267;48.194;11.546;2023-03-21T05:55:53;96082.66;;;8.82;80.73
29239;BME280;16267;48.194;11.546;2023-03-21T05:58:19;96085.69;;;8.84;80.70
29239;BME280;16267;48.194;11.546;2023-03-21T06:00:45;96085.31;;;8.85;81.81
29239;BME280;16267;48.194;11.546;2023-03-21T06:03:11;96084.94;;;8.87;81.97
29239;BME280;16267;48.194;11.546;2023-03-21T06:05:37;96088.38;;;8.87;81.34
29239;BME280;16267;48.194;11.546;2023-03-21T06:08:02;96092.22;;;8.90;80.91
29239;BME280;16267;48.194;11.546;2023-03-21T06:10:28;96088.00;;;8.92;81.75
29239;BME280;16267;48.194;11.546;2023-03-21T06:12:54;96097.13;;;8.95;82.44
29239;BME280;16267;48.194;11.546;2023-03-21T06:15:20;96093.72;;;8.98;82.37
29239;BME280;16267;48.194;11.546;2023-03-21T06:17:46;96092.19;;;9.01;81.61
29239;BME280;16267;48.194;11.546;2023-03-21T06:20:12;96094.84;;;9.04;81.96
29239;BME280;16267;48.194;11.546;2023-03-21T06:22:38;96092.16;;;9.08;82.01
29239;BME280;16267;48.194;11.546;2023-03-21T06:25:05;96094.06;;;9.11;82.05
29239;BME280;16267;48.194;11.546;2023-03-21T06:27:33;96090.59;;;9.14;81.76
29239;BME280;16267;48.194;11.546;2023-03-21T06:29:58;96086.38;;;9.16;81.43
29239;BME280;16267;48.194;11.546;2023-03-21T06:32:25;96089.06;;;9.20;81.08
29239;BME280;16267;48.194;11.546;2023-03-21T06:34:51;96097.47;;;9.22;81.75
29239;BME280;16267;48.194;11.546;2023-03-21T06:37:17;96098.59;;;9.25;81.77
29239;BME280;16267;48.194;11.546;2023-03-21T06:39:43;96092.88;;;9.26;81.20
29239;BME280;16267;48.194;11.546;2023-03-21T06:42:09;96098.19;;;9.30;81.17
29239;BME280;16267;48.194;11.546;2023-03-21T06:44:35;96106.22;;;9.33;81.18
29239;BME280;16267;48.194;11.546;2023-03-21T06:47:01;96097.81;;;9.35;81.27
29239;BME280;16267;48.194;11.546;2023-03-21T06:49:26;96102.03;;;9.32;80.44
29239;BME280;16267;48.194;11.546;2023-03-21T06:51:52;96107.75;;;9.31;79.98
29239;BME280;16267;48.194;11.546;2023-03-21T06:54:18;96103.19;;;9.31;80.21
29239;BME280;16267;48.194;11.546;2023-03-21T06:56:45;96105.47;;;9.33;80.27
29239;BME280;16267;48.194;11.546;2023-03-21T06:59:11;96103.53;;;9.37;80.80
29239;BME280;16267;48.194;11.546;2023-03-21T07:01:37;96106.59;;;9.43;81.06
29239;BME280;16267;48.194;11.546;2023-03-21T07:04:03;96106.94;;;9.48;80.28
29239;BME280;16267;48.194;11.546;2023-03-21T07:06:29;96096.56;;;9.50;80.21
29239;BME280;16267;48.194;11.546;2023-03-21T07:08:55;96101.16;;;9.57;80.88
29239;BME280;16267;48.194;11.546;2023-03-21T07:11:21;96101.88;;;9.61;79.93
29239;BME280;16267;48.194;11.546;2023-03-21T07:13:48;96095.75;;;9.68;79.62
29239;BME280;16267;48.194;11.546;2023-03-21T07:16:16;96102.25;;;9.70;79.82
29239;BME280;16267;48.194;11.546;2023-03-21T07:18:42;96099.91;;;9.76;79.93
29239;BME280;16267;48.194;11.546;2023-03-21T07:21:08;96102.19;;;9.77;78.87
29239;BME280;16267;48.194;11.546;2023-03-21T07:23:35;96099.09;;;9.82;79.39
29239;BME280;16267;48.194;11.546;2023-03-21T07:26:03;96098.69;;;9.88;78.83
29239;BME280;16267;48.194;11.546;2023-03-21T07:28:29;96107.88;;;9.90;78.07
29239;BME280;16267;48.194;11.546;2023-03-21T07:31:00;96108.22;;;9.96;77.85
29239;BME280;16267;48.194;11.546;2023-03-21T07:33:27;96105.13;;;10.01;76.18
29239;BME280;16267;48.194;11.546;2023-03-21T07:35:54;96103.94;;;10.05;76.40
29239;BME280;16267;48.194;11.546;2023-03-21T07:38:22;96109.66;;;10.11;76.68
29239;BME280;16267;48.194;11.546;2023-03-21T07:40:48;96109.22;;;10.16;76.91
29239;BME280;16267;48.194;11.546;2023-03-21T07:43:15;96106.91;;;10.22;76.93
29239;BME280;16267;48.194;11.546;2023-03-21T07:45:41;96107.28;;;10.24;75.51
29239;BME280;16267;48.194;11.546;2023-03-21T07:48:08;96105.72;;;10.26;73.21
29239;BME280;16267;48.194;11.546;2023-03-21T07:50:34;96113.38;;;10.32;73.44
29239;BME280;16267;48.194;11.546;2023-03-21T07:53:00;96109.88;;;10.38;74.03
29239;BME280;16267;48.194;11.546;2023-03-21T07:55:27;96104.09;;;10.43;74.27
29239;BME280;16267;48.194;11.546;2023-03-21T07:57:52;96110.16;;;10.51;74.44
29239;BME280;16267;48.194;11.546;2023-03-21T08:00:19;96107.06;;;10.56;74.51
29239;BME280;16267;48.194;11.546;2023-03-21T08:02:53;96104.31;;;10.63;73.93
29239;BME280;16267;48.194;11.546;2023-03-21T08:05:22;96106.19;;;10.70;73.90
29239;BME280;16267;48.194;11.546;2023-03-21T08:07:49;96106.94;;;10.70;71.91
29239;BME280;16267;48.194;11.546;2023-03-21T08:10:16;96103.44;;;10.74;71.15
29239;BME280;16267;48.194;11.546;2023-03-21T08:12:43;96103.78;;;10.79;72.41
29239;BME280;16267;48.194;11.546;2023-03-21T08:15:10;96109.47;;;10.85;72.43
29239;BME280;16267;48.194;11.546;2023-03-21T08:17:37;96105.63;;;10.89;72.71
29239;BME280;16267;48.194;11.546;2023-03-21T08:20:07;96103.59;;;10.97;72.54
29239;BME280;16267;48.194;11.546;2023-03-21T08:22:35;96108.19;;;11.00;71.61
29239;BME280;16267;48.194;11.546;2023-03-21T08:25:02;96106.97;;;11.05;70.20
29239;BME280;16267;48.194;11.546;2023-03-21T08:27:30;96099.25;;;11.10;70.86
29239;BME280;16267;48.194;11.546;2023-03-21T08:29:57;96103.88;;;11.10;69.66
29239;BME280;16267;48.194;11.546;2023-03-21T08:32:23;96100.31;;;11.16;71.16
29239;BME280;16267;48.194;11.546;2023-03-21T08:35:00;96097.97;;;11.22;71.61
29239;BME280;16267;48.194;11.546;2023-03-21T08:37:27;96102.56;;;11.25;69.90
29239;BME280;16267;48.194;11.546;2023-03-21T08:39:53;96098.28;;;11.28;68.75
29239;BME280;16267;48.194;11.546;2023-03-21T08:42:20;96099.00;;;11.32;68.13
29239;BME280;16267;48.194;11.546;2023-03-21T08:44:48;96092.09;;;11.34;67.29
29239;BME280;16267;48.194;11.546;2023-03-21T08:47:14;96089.34;;;11.38;68.30
29239;BME280;16267;48.194;11.546;2023-03-21T08:49:40;96091.97;;;11.42;68.07
29239;BME280;16267;48.194;11.546;2023-03-21T08:52:06;96091.19;;;11.45;66.93
29239;BME280;16267;48.194;11.546;2023-03-21T08:54:32;96084.97;;;11.51;67.38
29239;BME280;16267;48.194;11.546;2023-03-21T08:56:58;96087.97;;;11.57;66.53
29239;BME280;16267;48.194;11.546;2023-03-21T08:59:24;96087.91;;;11.60;65.29
29239;BME280;16267;48.194;11.546;2023-03-21T09:01:50;96087.09;;;11.64;65.38
29239;BME280;16267;48.194;11.546;2023-03-21T09:04:16;96092.34;;;11.74;67.08
29239;BME280;16267;48.194;11.546;2023-03-21T09:06:43;96082.66;;;11.80;65.41
29239;BME280;16267;48.194;11.546;2023-03-21T09:09:15;96081.06;;;11.87;65.36
29239;BME280;16267;48.194;11.546;2023-03-21T09:11:41;96085.94;;;11.95;64.41
29239;BME280;16267;48.194;11.546;2023-03-21T09:14:07;96076.00;;;11.92;62.16
29239;BME280;16267;48.194;11.546;2023-03-21T09:16:34;96075.88;;;11.99;62.75
29239;BME280;16267;48.194;11.546;2023-03-21T09:19:00;96075.44;;;12.04;62.30
29239;BME280;16267;48.194;11.546;2023-03-21T09:21:27;96073.78;;;12.11;62.69
29239;BME280;16267;48.194;11.546;2023-03-21T09:23:54;96075.56;;;12.21;62.22
29239;BME280;16267;48.194;11.546;2023-03-21T09:26:24;96073.91;;;12.31;62.88
29239;BME280;16267;48.194;11.546;2023-03-21T09:28:53;96074.59;;;12.35;61.06
29239;BME280;16267;48.194;11.546;2023-03-21T09:31:19;96067.16;;;12.42;60.53
29239;BME280;16267;48.194;11.546;2023-03-21T09:33:51;96061.66;;;12.49;60.87
29239;BME280;16267;48.194;11.546;2023-03-21T09:36:18;96065.00;;;12.57;60.07
29239;BME280;16267;48.194;11.546;2023-03-21T09:38:47;96067.16;;;12.66;61.13
29239;BME280;16267;48.194;11.546;2023-03-21T09:42:03;96070.91;;;12.72;59.06
29239;BME280;16267;48.194;11.546;2023-03-21T09:45:09;96064.41;;;12.69;57.41
29239;BME280;16267;48.194;11.546;2023-03-21T09:47:47;96062.75;;;12.76;58.40
29239;BME280;16267;48.194;11.546;2023-03-21T09:50:28;96064.28;;;12.77;57.21
29239;BME280;16267;48.194;11.546;2023-03-21T09:55:39;96067.50;;;12.91;57.53
29239;BME280;16267;48.194;11.546;2023-03-21T09:58:27;96065.00;;;13.01;58.16
29239;BME280;16267;48.194;11.546;2023-03-21T10:01:18;96067.50;;;13.11;58.51
29239;BME280;16267;48.194;11.546;2023-03-21T10:03:52;96058.84;;;13.20;58.30
29239;BME280;16267;48.194;11.546;2023-03-21T10:06:19;96057.56;;;13.28;56.45
29239;BME280;16267;48.194;11.546;2023-03-21T10:09:02;96053.97;;;13.35;56.64
29239;BME280;16267;48.194;11.546;2023-03-21T10:11:48;96048.34;;;13.46;56.53
29239;BME280;16267;48.194;11.546;2023-03-21T10:14:44;96044.56;;;13.43;54.87
29239;BME280;16267;48.194;11.546;2023-03-21T10:17:39;96045.72;;;13.22;53.84
29239;BME280;16267;48.194;11.546;2023-03-21T10:20:37;96036.94;;;13.38;53.57
29239;BME280;16267;48.194;11.546;2023-03-21T10:23:12;96032.03;;;13.53;54.52
29239;BME280;16267;48.194;11.546;2023-03-21T10:25:51;96040.72;;;13.60;53.13
29239;BME280;16267;48.194;11.546;2023-03-21T10:28:29;96036.13;;;13.77;54.89
29239;BME280;16267;48.194;11.546;2023-03-21T10:30:59;96030.88;;;13.70;52.68
29239;BME280;16267;48.194;11.546;2023-03-21T10:33:34;96035.34;;;13.77;54.00
29239;BME280;16267;48.194;11.546;2023-03-21T10:36:06;96025.16;;;13.68;51.91
29239;BME280;16267;48.194;11.546;2023-03-21T10:38:32;96024.41;;;13.84;52.22
29239;BME280;16267;48.194;11.546;2023-03-21T10:40:59;96021.81;;;13.97;53.32
29239;BME280;16267;48.194;11.546;2023-03-21T10:45:52;96012.88;;;14.16;53.92
29239;BME280;16267;48.194;11.546;2023-03-21T10:48:19;96014.81;;;14.32;54.44
29239;BME280;16267;48.194;11.546;2023-03-21T10:50:49;96015.72;;;14.42;52.70
29239;BME280;16267;48.194;11.546;2023-03-21T10:53:54;96010.75;;;14.57;53.26
29239;BME280;16267;48.194;11.546;2023-03-21T10:56:37;96009.28;;;14.68;52.89
29239;BME280;16267;48.194;11.546;2023-03-21T10:59:05;96003.59;;;14.79;52.10
29239;BME280;16267;48.194;11.546;2023-03-21T11:01:48;96010.19;;;14.78;50.75
29239;BME280;16267;48.194;11.546;2023-03-21T11:04:28;96006.25;;;14.66;49.92
29239;BME280;16267;48.194;11.546;2023-03-21T11:06:57;96008.00;;;14.73;50.54
29239;BME280;16267;48.194;11.546;2023-03-21T11:09:54;96006.97;;;14.83;50.03
29239;BME280;16267;48.194;11.546;2023-03-21T11:12:37;96003.69;;;14.76;49.31
29239;BME280;16267;48.194;11.546;2023-03-21T11:18:23;95995.16;;;15.06;51.97
29239;BME280;16267;48.194;11.546;2023-03-21T11:21:06;95989.50;;;15.01;49.42
29239;BME280;16267;48.194;11.546;2023-03-21T11:23:34;95993.88;;;15.11;50.90
29239;BME280;16267;48.194;11.546;2023-03-21T11:26:02;95990.31;;;15.27;50.18
29239;BME280;16267;48.194;11.546;2023-03-21T11:28:39;95980.38;;;15.36;49.87
29239;BME280;16267;48.194;11.546;2023-03-21T11:31:06;95989.28;;;14.95;49.03
29239;BME280;16267;48.194;11.546;2023-03-21T11:33:49;95981.97;;;15.08;48.96
29239;BME280;16267;48.194;11.546;2023-03-21T11:39:27;95971.84;;;15.38;48.89
29239;BME280;16267;48.194;11.546;2023-03-21T11:41:53;95962.97;;;15.50;49.12
29239;BME280;16267;48.194;11.546;2023-03-21T11:44:33;95956.25;;;15.68;51.16
29239;BME280;16267;48.194;11.546;2023-03-21T11:47:00;95952.72;;;15.83;52.37
29239;BME280;16267;48.194;11.546;2023-03-21T11:49:27;95956.16;;;15.84;48.00
29239;BME280;16267;48.194;11.546;2023-03-21T11:52:16;95948.59;;;15.92;49.26
29239;BME280;16267;48.194;11.546;2023-03-21T11:55:25;95936.88;;;16.08;51.73
29239;BME280;16267;48.194;11.546;2023-03-21T12:00:44;95924.47;;;16.19;48.24
29239;BME280;16267;48.194;11.546;2023-03-21T12:04:02;95925.75;;;16.27;48.59
29239;BME280;16267;48.194;11.546;2023-03-21T12:06:38;95914.38;;;16.33;48.28
29239;BME280;16267;48.194;11.546;2023-03-21T12:09:40;95913.03;;;16.37;47.52
29239;BME280;16267;48.194;11.546;2023-03-21T12:12:57;95901.97;;;16.44;49.14
29239;BME280;16267;48.194;11.546;2023-03-21T12:24:55;95884.50;;;16.45;44.76
29239;BME280;16267;48.194;11.546;2023-03-21T12:27:56;95886.69;;;16.38;46.21
29239;BME280;16267;48.194;11.546;2023-03-21T12:31:12;95887.97;;;16.24;43.20
29239;BME280;16267;48.194;11.546;2023-03-21T12:36:42;95884.00;;;16.38;44.84
29239;BME280;16267;48.194;11.546;2023-03-21T12:39:38;95883.75;;;16.45;46.32
29239;BME280;16267;48.194;11.546;2023-03-21T12:45:01;95880.16;;;16.48;43.18
29239;BME280;16267;48.194;11.546;2023-03-21T12:47:31;95878.38;;;16.54;43.54
29239;BME280;16267;48.194;11.546;2023-03-21T12:52:57;95870.81;;;16.71;44.05
29239;BME280;16267;48.194;11.546;2023-03-21T12:55:33;95862.81;;;16.67;42.48
29239;BME280;16267;48.194;11.546;2023-03-21T12:58:15;95869.28;;;16.61;40.91
29239;BME280;16267;48.194;11.546;2023-03-21T13:00:55;95862.47;;;16.56;41.03
29239;BME280;16267;48.194;11.546;2023-03-21T13:06:04;95853.94;;;16.89;43.06
29239;BME280;16267;48.194;11.546;2023-03-21T13:08:45;95849.63;;;17.01;42.16
29239;BME280;16267;48.194;11.546;2023-03-21T13:11:20;95842.72;;;17.09;42.80
29239;BME280;16267;48.194;11.546;2023-03-21T13:14:15;95835.22;;;17.13;42.20
29239;BME280;16267;48.194;11.546;2023-03-21T13:16:53;95837.03;;;17.16;42.44
29239;BME280;16267;48.194;11.546;2023-03-21T13:19:50;95840.25;;;17.24;42.83
29239;BME280;16267;48.194;11.546;2023-03-21T13:22:27;95837.22;;;17.22;43.09
29239;BME280;16267;48.194;11.546;2023-03-21T13:25:05;95826.53;;;17.27;43.04
29239;BME280;16267;48.194;11.546;2023-03-21T13:27:36;95822.47;;;17.32;43.45
29239;BME280;16267;48.194;11.546;2023-03-21T13:32:41;95824.59;;;17.37;43.29
29239;BME280;16267;48.194;11.546;2023-03-21T13:35:20;95813.78;;;16.97;40.74
29239;BME280;16267;48.194;11.546;2023-03-21T13:37:56;95817.72;;;17.05;42.36
29239;BME280;16267;48.194;11.546;2023-03-21T13:49:12;95811.47;;;17.35;42.75
29239;BME280;16267;48.194;11.546;2023-03-21T13:51:44;95811.16;;;17.33;43.31
29239;BME280;16267;48.194;11.546;2023-03-21T13:54:22;95807.25;;;17.34;40.89
29239;BME280;16267;48.194;11.546;2023-03-21T13:56:51;95803.03;;;17.43;42.45
29239;BME280;16267;48.194;11.546;2023-03-21T14:02:31;95798.41;;;17.43;40.67
29239;BME280;16267;48.194;11.546;2023-03-21T14:05:16;95796.72;;;17.46;41.01
29239;BME280;16267;48.194;11.546;2023-03-21T14:07:47;95789.63;;;17.48;41.15
29239;BME280;16267;48.194;11.546;2023-03-21T14:10:34;95792.66;;;17.50;41.79
29239;BME280;16267;48.194;11.546;2023-03-21T14:13:03;95795.53;;;17.47;41.85
29239;BME280;16267;48.194;11.546;2023-03-21T14:15:43;95796.72;;;17.36;40.61
29239;BME280;16267;48.194;11.546;2023-03-21T14:18:19;95789.63;;;17.30;41.83
29239;BME280;16267;48.194;11.546;2023-03-21T14:20:55;95793.25;;;17.27;40.92
29239;BME280;16267;48.194;11.546;2023-03-21T14:23:23;95778.31;;;17.31;40.51
29239;BME280;16267;48.194;11.546;2023-03-21T14:25:49;95779.22;;;17.37;41.21
29239;BME280;16267;48.194;11.546;2023-03-21T14:28:19;95788.72;;;17.42;42.06
29239;BME280;16267;48.194;11.546;2023-03-21T14:30:58;95776.97;;;17.45;42.78
29239;BME280;16267;48.194;11.546;2023-03-21T14:33:35;95780.44;;;17.46;42.63
29239;BME280;16267;48.194;11.546;2023-03-21T14:36:12;95778.03;;;17.48;41.83
29239;BME280;16267;48.194;11.546;2023-03-21T14:38:39;95782.56;;;17.51;41.91
29239;BME280;16267;48.194;11.546;2023-03-21T14:41:21;95775.47;;;17.44;40.94
29239;BME280;16267;48.194;11.546;2023-03-21T14:44:21;95768.56;;;17.43;41.05
29239;BME280;16267;48.194;11.546;2023-03-21T14:47:07;95769.25;;;17.25;40.10
29239;BME280;16267;48.194;11.546;2023-03-21T14:49:40;95771.81;;;17.29;40.88